Time;durP1;ratioP1;P1;durP2;ratioP2;P2;SDS_P1;SDS_P2;PMS_P1;PMS_P2;Temp;Humidity;BMP_temperature;BMP_pressure;BME280_temperature;BME280_humidity;BME280_pressure;Samples;Min_cycle;Max_cycle;Signal;HPM_P1;HPM_P2
2022/08/09 00:00:36;;;;;;;;;;;;;;;;;;4943313;28;19967;-82
2022/08/09 00:03:01;;;;;;;;;;;;;;;;;;4946743;28;20388;-84
2022/08/09 00:05:26;;;;;;;;;;;;;;;;;;4944122;28;19922;-83
2022/08/09 00:07:51;;;;;;;;;;;;;;;;;;4944321;28;19915;-83
2022/08/09 00:10:16;;;;;;;;;;;;;;;;;;4948685;28;19928;-82
2022/08/09 00:12:41;;;;;;;;;;;;;;;;;;4946266;28;19969;-83
2022/08/09 00:15:07;;;;;;;;;;;;;;;;;;4947248;28;20546;-83
2022/08/09 00:17:32;;;;;;;;;;;;;;;;;;4947265;28;19919;-82
2022/08/09 00:19:57;;;;;;;;;;;;;;;;;;4946760;28;19915;-83
2022/08/09 00:22:22;;;;;;;;;;;;;;;;;;4948096;29;20005;-83
2022/08/09 00:24:47;;;;;;;;;;;;;;;;;;4945316;28;20529;-83
2022/08/09 00:27:12;;;;;;;;;;;;;;;;;;4949149;28;19925;-83
2022/08/09 00:29:38;;;;;;;;;;;;;;;;;;4951793;28;19919;-83
2022/08/09 00:32:03;;;;;;;;;;;;;;;;;;4949374;28;20422;-84
2022/08/09 00:34:28;;;;;;;;;;;;;;;;;;4951377;28;19918;-83
2022/08/09 00:36:53;;;;;;;;;;;;;;;;;;4947080;28;20388;-83
2022/08/09 00:39:18;;;;;;;;;;;;;;;;;;4951495;28;19919;-83
2022/08/09 00:41:44;;;;;;;;;;;;;;;;;;4948578;28;19921;-83
2022/08/09 00:44:09;;;;;;;;;;;;;;;;;;4948250;28;19923;-83
2022/08/09 00:46:35;;;;;;;;;;;;;;;;;;4955114;28;19918;-83
2022/08/09 00:49:00;;;;;;;;;;;;;;;;;;4953873;28;20827;-83
2022/08/09 00:51:25;;;;;;;;;;;;;;;;;;4948883;29;19918;-83
2022/08/09 00:53:50;;;;;;;;;;;;;;;;;;4963803;28;19910;-83
2022/08/09 00:56:16;;;;;;;;;;;;;;;;;;4944883;28;20404;-83
2022/08/09 00:58:41;;;;;;;;;;;;;;;;;;4949792;29;19915;-84
2022/08/09 01:01:06;;;;;;;;;;;;;;;;;;4941915;28;19914;-83
2022/08/09 01:03:32;;;;;;;;;;;;;;;;;;4949374;28;19911;-83
2022/08/09 01:05:57;;;;;;;;;;;;;;;;;;4953636;28;19915;-83
2022/08/09 01:08:22;;;;;;;;;;;;;;;;;;4953310;28;19921;-83
2022/08/09 01:10:47;;;;;;;;;;;;;;;;;;4946809;28;19914;-82
2022/08/09 01:13:12;;;;;;;;;;;;;;;;;;4950166;28;19914;-83
2022/08/09 01:15:37;;;;;;;;;;;;;;;;;;4951788;28;20021;-83
2022/08/09 01:18:02;;;;;;;;;;;;;;;;;;4953846;28;19921;-83
2022/08/09 01:20:28;;;;;;;;;;;;;;;;;;4950026;28;19918;-83
2022/08/09 01:22:53;;;;;;;;;;;;;;;;;;4951593;28;20005;-83
2022/08/09 01:25:18;;;;;;;;;;;;;;;;;;4953709;28;19918;-82
2022/08/09 01:27:43;;;;;;;;;;;;;;;;;;4949854;28;19915;-83
2022/08/09 01:30:08;;;;;;;;;;;;;;;;;;4948017;28;19918;-83
2022/08/09 01:32:33;;;;;;;;;;;;;;;;;;4947539;28;19914;-83
2022/08/09 01:34:59;;;;;;;;;;;;;;;;;;4950380;28;19926;-83
2022/08/09 01:37:24;;;;;;;;;;;;;;;;;;4949839;28;20022;-83
2022/08/09 01:39:49;;;;;;;;;;;;;;;;;;4945383;28;19970;-83
2022/08/09 01:42:14;;;;;;;;;;;;;;;;;;4946136;28;19953;-82
2022/08/09 01:44:40;;;;;;;;;;;;;;;;;;4953797;28;19977;-83
2022/08/09 01:47:05;;;;;;;;;;;;;;;;;;4952367;28;20022;-83
2022/08/09 01:49:30;;;;;;;;;;;;;;;;;;4952873;28;20299;-83
2022/08/09 01:51:56;;;;;;;;;;;;;;;;;;4949738;28;19921;-83
2022/08/09 01:54:21;;;;;;;;;;;;;;;;;;4952462;28;19921;-83
2022/08/09 01:56:46;;;;;;;;;;;;;;;;;;4953066;28;20005;-83
2022/08/09 01:59:11;;;;;;;;;;;;;;;;;;4948244;28;19914;-82
2022/08/09 02:01:36;;;;;;;;;;;;;;;;;;4941055;29;20266;-82
2022/08/09 02:04:02;;;;;;;;;;;;;;;;;;4946932;28;19922;-84
2022/08/09 02:09:11;;;;;;;;;;;;;;;;;;4947642;28;19922;-83
2022/08/09 02:11:36;;;;;;;;;;;;;;;;;;4949643;28;19919;-83
2022/08/09 02:14:01;;;;;;;;;;;;;;;;;;4948504;28;20284;-82
2022/08/09 02:16:29;;;;;;;;;;;;;;;;;;4942435;28;19915;-83
2022/08/09 02:18:54;;;;;;;;;;;;;;;;;;4942741;28;19974;-83
2022/08/09 02:21:19;;;;;;;;;;;;;;;;;;4962678;28;20917;-83
2022/08/09 02:23:44;;;;;;;;;;;;;;;;;;4946589;28;19919;-83
2022/08/09 02:26:10;;;;;;;;;;;;;;;;;;4951566;28;20455;-83
2022/08/09 02:28:35;;;;;;;;;;;;;;;;;;4945667;28;19925;-83
2022/08/09 02:31:00;;;;;;;;;;;;;;;;;;4948065;28;20040;-84
2022/08/09 02:33:25;;;;;;;;;;;;;;;;;;4945856;28;19937;-83
2022/08/09 02:35:50;;;;;;;;;;;;;;;;;;4953372;28;19914;-83
2022/08/09 02:38:15;;;;;;;;;;;;;;;;;;4954093;28;20384;-84
2022/08/09 02:40:41;;;;;;;;;;;;;;;;;;4953108;28;19926;-83
2022/08/09 02:43:06;;;;;;;;;;;;;;;;;;4950855;28;19918;-83
2022/08/09 02:45:31;;;;;;;;;;;;;;;;;;4953217;28;19911;-82
2022/08/09 02:47:56;;;;;;;;;;;;;;;;;;4953709;29;19965;-83
2022/08/09 02:50:21;;;;;;;;;;;;;;;;;;4953534;28;20379;-84
2022/08/09 02:52:46;;;;;;;;;;;;;;;;;;4953358;28;19911;-83
2022/08/09 02:55:12;;;;;;;;;;;;;;;;;;4952613;28;20384;-83
2022/08/09 02:57:37;;;;;;;;;;;;;;;;;;4953736;28;19937;-83
2022/08/09 03:00:02;;;;;;;;;;;;;;;;;;4937357;28;20469;-84
2022/08/09 03:02:27;;;;;;;;;;;;;;;;;;4952258;28;19914;-83
2022/08/09 03:04:52;;;;;;;;;;;;;;;;;;4951571;28;19946;-83
2022/08/09 03:07:18;;;;;;;;;;;;;;;;;;4948036;28;19915;-83
2022/08/09 03:09:44;;;;;;;;;;;;;;;;;;4953140;28;19914;-83
2022/08/09 03:12:09;;;;;;;;;;;;;;;;;;4952207;28;19914;-83
2022/08/09 03:14:34;;;;;;;;;;;;;;;;;;4945827;28;20281;-82
2022/08/09 03:16:59;;;;;;;;;;;;;;;;;;4953098;28;20519;-83
2022/08/09 03:19:25;;;;;;;;;;;;;;;;;;4952673;28;19921;-83
2022/08/09 03:21:50;;;;;;;;;;;;;;;;;;4953096;28;19915;-82
2022/08/09 03:24:15;;;;;;;;;;;;;;;;;;4953146;28;19910;-83
2022/08/09 03:26:40;;;;;;;;;;;;;;;;;;4953188;28;19910;-83
2022/08/09 03:29:05;;;;;;;;;;;;;;;;;;4952804;28;19993;-83
2022/08/09 03:31:30;;;;;;;;;;;;;;;;;;4952977;29;19938;-83
2022/08/09 03:33:56;;;;;;;;;;;;;;;;;;4952718;28;20266;-83
2022/08/09 03:36:21;;;;;;;;;;;;;;;;;;4953007;28;19915;-82
2022/08/09 03:38:46;;;;;;;;;;;;;;;;;;4951870;28;19921;-83
2022/08/09 03:41:11;;;;;;;;;;;;;;;;;;4949592;28;19911;-83
2022/08/09 03:43:36;;;;;;;;;;;;;;;;;;4941411;28;19938;-83
2022/08/09 03:46:01;;;;;;;;;;;;;;;;;;4952723;28;20013;-83
2022/08/09 03:48:27;;;;;;;;;;;;;;;;;;4952516;28;19915;-82
2022/08/09 03:50:52;;;;;;;;;;;;;;;;;;4952803;28;19914;-83
2022/08/09 03:53:17;;;;;;;;;;;;;;;;;;4947552;28;19921;-83
2022/08/09 03:55:42;;;;;;;;;;;;;;;;;;4944057;28;20324;-83
2022/08/09 03:58:07;;;;;;;;;;;;;;;;;;4943408;28;19914;-82
2022/08/09 04:00:32;;;;;;;;;;;;;;;;;;4945597;28;20453;-82
2022/08/09 04:02:58;;;;;;;;;;;;;;;;;;4948839;28;19922;-82
2022/08/09 04:05:23;;;;;;;;;;;;;;;;;;4942813;28;19914;-82
2022/08/09 04:07:48;;;;;;;;;;;;;;;;;;4945742;29;19917;-82
2022/08/09 04:10:13;;;;;;;;;;;;;;;;;;4949456;29;20832;-82
2022/08/09 04:12:38;;;;;;;;;;;;;;;;;;4954258;28;19910;-83
2022/08/09 04:15:03;;;;;;;;;;;;;;;;;;4955181;28;19926;-83
2022/08/09 04:17:29;;;;;;;;;;;;;;;;;;4951188;28;20006;-82
2022/08/09 04:19:54;;;;;;;;;;;;;;;;;;4945336;29;19925;-83
2022/08/09 04:22:19;;;;;;;;;;;;;;;;;;4951443;28;19918;-81
2022/08/09 04:24:44;;;;;;;;;;;;;;;;;;4955882;28;20858;-83
2022/08/09 04:27:09;;;;;;;;;;;;;;;;;;4955538;28;19917;-82
2022/08/09 04:29:34;;;;;;;;;;;;;;;;;;4950876;28;20391;-83
2022/08/09 04:31:59;;;;;;;;;;;;;;;;;;4955788;28;19918;-82
2022/08/09 04:34:25;;;;;;;;;;;;;;;;;;4955514;28;20389;-83
2022/08/09 04:36:50;;;;;;;;;;;;;;;;;;4961233;28;19910;-82
2022/08/09 04:39:15;;;;;;;;;;;;;;;;;;4956177;28;19922;-83
2022/08/09 04:41:40;;;;;;;;;;;;;;;;;;4955601;28;20380;-83
2022/08/09 04:44:10;;;;;;;;;;;;;;;;;;4947329;28;19993;-83
2022/08/09 04:46:35;;;;;;;;;;;;;;;;;;4941916;28;19925;-83
2022/08/09 04:49:01;;;;;;;;;;;;;;;;;;4955784;28;19923;-84
2022/08/09 04:51:26;;;;;;;;;;;;;;;;;;4951701;28;20469;-83
2022/08/09 04:53:51;;;;;;;;;;;;;;;;;;4956089;28;19917;-85
2022/08/09 04:56:16;;;;;;;;;;;;;;;;;;4955506;28;20415;-84
2022/08/09 04:58:41;;;;;;;;;;;;;;;;;;4951847;28;19919;-83
2022/08/09 05:01:06;;;;;;;;;;;;;;;;;;4950583;28;19946;-83
2022/08/09 05:03:32;;;;;;;;;;;;;;;;;;4949674;28;19914;-84
2022/08/09 05:05:57;;;;;;;;;;;;;;;;;;4962899;28;20316;-83
2022/08/09 05:08:22;;;;;;;;;;;;;;;;;;4953308;28;19950;-83
2022/08/09 05:10:47;;;;;;;;;;;;;;;;;;4953543;28;20300;-83
2022/08/09 05:13:12;;;;;;;;;;;;;;;;;;4944094;29;19969;-83
2022/08/09 05:15:38;;;;;;;;;;;;;;;;;;4941200;28;20489;-83
2022/08/09 05:18:03;;;;;;;;;;;;;;;;;;4937906;28;20009;-83
2022/08/09 05:20:28;;;;;;;;;;;;;;;;;;4947558;28;20396;-84
2022/08/09 05:22:53;;;;;;;;;;;;;;;;;;4954734;28;19945;-83
2022/08/09 05:25:18;;;;;;;;;;;;;;;;;;4954001;28;19917;-83
2022/08/09 05:27:43;;;;;;;;;;;;;;;;;;4952612;28;19910;-83
2022/08/09 05:30:08;;;;;;;;;;;;;;;;;;4964074;28;19915;-82
2022/08/09 05:32:34;;;;;;;;;;;;;;;;;;4954531;28;19922;-83
2022/08/09 05:34:59;;;;;;;;;;;;;;;;;;4951179;28;19914;-83
2022/08/09 05:37:25;;;;;;;;;;;;;;;;;;4949738;28;20001;-83
2022/08/09 05:39:50;;;;;;;;;;;;;;;;;;4952421;28;19919;-84
2022/08/09 05:42:15;;;;;;;;;;;;;;;;;;4954586;29;20005;-83
2022/08/09 05:44:40;;;;;;;;;;;;;;;;;;4953605;28;19910;-83
2022/08/09 05:47:05;;;;;;;;;;;;;;;;;;4954629;28;20009;-83
2022/08/09 05:49:30;;;;;;;;;;;;;;;;;;4948697;28;19919;-83
2022/08/09 05:51:56;;;;;;;;;;;;;;;;;;4944852;28;19914;-83
2022/08/09 05:54:21;;;;;;;;;;;;;;;;;;4950934;28;19922;-83
2022/08/09 05:56:46;;;;;;;;;;;;;;;;;;4950696;28;19914;-84
2022/08/09 05:59:11;;;;;;;;;;;;;;;;;;4946386;28;19915;-83
2022/08/09 06:01:36;;;;;;;;;;;;;;;;;;4957549;28;20411;-84
2022/08/09 06:04:01;;;;;;;;;;;;;;;;;;4950976;28;19958;-83
2022/08/09 06:06:27;;;;;;;;;;;;;;;;;;4950714;28;19937;-83
2022/08/09 06:08:52;;;;;;;;;;;;;;;;;;4949941;28;19965;-83
2022/08/09 06:11:17;;;;;;;;;;;;;;;;;;4953595;28;19929;-83
2022/08/09 06:13:42;;;;;;;;;;;;;;;;;;4946019;28;19915;-83
2022/08/09 06:16:07;;;;;;;;;;;;;;;;;;4952817;28;20371;-83
2022/08/09 06:18:32;;;;;;;;;;;;;;;;;;4945684;28;19918;-84
2022/08/09 06:20:58;;;;;;;;;;;;;;;;;;4953749;28;19915;-84
2022/08/09 06:23:23;;;;;;;;;;;;;;;;;;4953029;28;19915;-83
2022/08/09 06:25:48;;;;;;;;;;;;;;;;;;4949873;28;20845;-84
2022/08/09 06:28:14;;;;;;;;;;;;;;;;;;4943509;28;19922;-84
2022/08/09 06:30:39;;;;;;;;;;;;;;;;;;4952264;28;19914;-84
2022/08/09 06:33:04;;;;;;;;;;;;;;;;;;4951100;28;19910;-83
2022/08/09 06:35:29;;;;;;;;;;;;;;;;;;4951086;28;19914;-83
2022/08/09 06:37:54;;;;;;;;;;;;;;;;;;4950551;28;19915;-83
2022/08/09 06:40:19;;;;;;;;;;;;;;;;;;4949185;29;20393;-84
2022/08/09 06:42:44;;;;;;;;;;;;;;;;;;4945337;28;19926;-83
2022/08/09 06:45:10;;;;;;;;;;;;;;;;;;4950451;28;19918;-83
2022/08/09 06:47:35;;;;;;;;;;;;;;;;;;4950041;28;19960;-83
2022/08/09 06:50:00;;;;;;;;;;;;;;;;;;4945943;28;19974;-83
2022/08/09 06:52:25;;;;;;;;;;;;;;;;;;4949329;28;19918;-83
2022/08/09 06:54:50;;;;;;;;;;;;;;;;;;4951179;28;19934;-84
2022/08/09 06:57:16;;;;;;;;;;;;;;;;;;4953800;28;19937;-84
2022/08/09 06:59:41;;;;;;;;;;;;;;;;;;4949947;28;19919;-83
2022/08/09 07:02:06;;;;;;;;;;;;;;;;;;4943492;29;20276;-83
2022/08/09 07:04:31;;;;;;;;;;;;;;;;;;4946063;28;19915;-83
2022/08/09 07:06:57;;;;;;;;;;;;;;;;;;4950012;28;19921;-83
2022/08/09 07:09:22;;;;;;;;;;;;;;;;;;4946072;28;19951;-83
2022/08/09 07:11:47;;;;;;;;;;;;;;;;;;4952609;28;20359;-84
2022/08/09 07:14:16;;;;;;;;;;;;;;;;;;4947632;28;19914;-83
2022/08/09 07:16:41;;;;;;;;;;;;;;;;;;4941838;28;19919;-83
2022/08/09 07:19:09;;;;;;;;;;;;;;;;;;4946849;28;19921;-85
2022/08/09 07:21:34;;;;;;;;;;;;;;;;;;4948280;28;20459;-85
2022/08/09 07:23:59;;;;;;;;;;;;;;;;;;4945453;28;19922;-85
2022/08/09 07:26:25;;;;;;;;;;;;;;;;;;4949179;29;19918;-85
2022/08/09 07:28:50;;;;;;;;;;;;;;;;;;4941914;28;19922;-85
2022/08/09 07:31:15;;;;;;;;;;;;;;;;;;4948489;28;19923;-85
2022/08/09 07:33:40;;;;;;;;;;;;;;;;;;4944498;28;19919;-84
2022/08/09 07:36:05;;;;;;;;;;;;;;;;;;4964096;28;20502;-85
2022/08/09 07:38:31;;;;;;;;;;;;;;;;;;4952616;28;19915;-84
2022/08/09 07:40:56;;;;;;;;;;;;;;;;;;4952651;28;19965;-84
2022/08/09 07:43:21;;;;;;;;;;;;;;;;;;4950776;28;19915;-84
2022/08/09 07:45:46;;;;;;;;;;;;;;;;;;4952826;28;19922;-84
2022/08/09 07:48:11;;;;;;;;;;;;;;;;;;4952213;28;19915;-84
2022/08/09 07:50:39;;;;;;;;;;;;;;;;;;4943363;28;19966;-85
2022/08/09 07:53:04;;;;;;;;;;;;;;;;;;4948081;28;19914;-84
2022/08/09 07:55:29;;;;;;;;;;;;;;;;;;4946638;28;20606;-85
2022/08/09 07:57:56;;;;;;;;;;;;;;;;;;4947005;28;19922;-84
2022/08/09 08:00:21;;;;;;;;;;;;;;;;;;4949725;29;19961;-85
2022/08/09 08:02:46;;;;;;;;;;;;;;;;;;4950118;28;19926;-86
2022/08/09 08:05:11;;;;;;;;;;;;;;;;;;4948798;28;20361;-84
2022/08/09 08:07:36;;;;;;;;;;;;;;;;;;4945848;28;19918;-87
2022/08/09 08:10:02;;;;;;;;;;;;;;;;;;4948531;28;20359;-85
2022/08/09 08:12:27;;;;;;;;;;;;;;;;;;4947648;28;19918;-85
2022/08/09 08:14:52;;;;;;;;;;;;;;;;;;4948951;28;19950;-85
2022/08/09 08:17:17;;;;;;;;;;;;;;;;;;4952088;28;19914;-87
2022/08/09 08:19:42;;;;;;;;;;;;;;;;;;4945346;28;19938;-86
2022/08/09 08:22:08;;;;;;;;;;;;;;;;;;4950233;28;20041;-85
2022/08/09 08:24:33;;;;;;;;;;;;;;;;;;4948888;28;19914;-87
2022/08/09 08:26:58;;;;;;;;;;;;;;;;;;4951424;28;19922;-86
2022/08/09 08:29:23;;;;;;;;;;;;;;;;;;4949133;28;19915;-86
2022/08/09 08:31:48;;;;;;;;;;;;;;;;;;4947905;28;19918;-84
2022/08/09 08:34:13;;;;;;;;;;;;;;;;;;4944637;28;20412;-84
2022/08/09 08:36:39;;;;;;;;;;;;;;;;;;4960553;28;19925;-86
2022/08/09 08:39:04;;;;;;;;;;;;;;;;;;4946873;28;19922;-84
2022/08/09 08:41:29;;;;;;;;;;;;;;;;;;4951356;28;20372;-86
2022/08/09 08:43:54;;;;;;;;;;;;;;;;;;4949251;28;19954;-86
2022/08/09 08:46:19;;;;;;;;;;;;;;;;;;4947050;28;19936;-86
2022/08/09 08:48:45;;;;;;;;;;;;;;;;;;4950055;28;20005;-84
2022/08/09 08:51:10;;;;;;;;;;;;;;;;;;4943310;28;19919;-85
2022/08/09 08:53:35;;;;;;;;;;;;;;;;;;4946679;28;19929;-85
2022/08/09 08:56:00;;;;;;;;;;;;;;;;;;4959786;28;20385;-84
2022/08/09 08:58:25;;;;;;;;;;;;;;;;;;4948799;28;19919;-86
2022/08/09 09:00:50;;;;;;;;;;;;;;;;;;4950025;28;20013;-85
2022/08/09 09:03:16;;;;;;;;;;;;;;;;;;4958159;28;19914;-85
2022/08/09 09:05:41;;;;;;;;;;;;;;;;;;4952891;28;19969;-86
2022/08/09 09:08:07;;;;;;;;;;;;;;;;;;4945628;29;19914;-84
2022/08/09 09:10:32;;;;;;;;;;;;;;;;;;4943087;29;19921;-86
2022/08/09 09:12:57;;;;;;;;;;;;;;;;;;4947461;28;19914;-85
2022/08/09 09:15:22;;;;;;;;;;;;;;;;;;4951383;28;20019;-86
2022/08/09 09:17:47;;;;;;;;;;;;;;;;;;4954271;28;20360;-85
2022/08/09 09:20:13;;;;;;;;;;;;;;;;;;4950869;29;19914;-85
2022/08/09 09:22:38;;;;;;;;;;;;;;;;;;4948419;28;19949;-85
2022/08/09 09:25:03;;;;;;;;;;;;;;;;;;4953764;28;19961;-85
2022/08/09 09:27:28;;;;;;;;;;;;;;;;;;4945637;28;19915;-85
2022/08/09 09:29:53;;;;;;;;;;;;;;;;;;4950965;28;20016;-84
2022/08/09 09:32:18;;;;;;;;;;;;;;;;;;4951531;28;19914;-85
2022/08/09 09:34:43;;;;;;;;;;;;;;;;;;4950121;28;19997;-84
2022/08/09 09:37:09;;;;;;;;;;;;;;;;;;4947063;28;21233;-84
2022/08/09 09:39:34;;;;;;;;;;;;;;;;;;4947133;28;20023;-83
2022/08/09 09:41:59;;;;;;;;;;;;;;;;;;4952005;28;20557;-83
2022/08/09 09:44:25;;;;;;;;;;;;;;;;;;4950166;28;20280;-85
2022/08/09 09:46:50;;;;;;;;;;;;;;;;;;4943302;28;20357;-86
2022/08/09 09:49:15;;;;;;;;;;;;;;;;;;4954910;28;19930;-84
2022/08/09 09:51:40;;;;;;;;;;;;;;;;;;4952824;28;19966;-84
2022/08/09 09:54:05;;;;;;;;;;;;;;;;;;4950129;28;19987;-84
2022/08/09 09:56:31;;;;;;;;;;;;;;;;;;4955381;28;19917;-86
2022/08/09 09:58:56;;;;;;;;;;;;;;;;;;4945931;28;20341;-84
2022/08/09 10:01:21;;;;;;;;;;;;;;;;;;4946368;28;19915;-84
2022/08/09 10:03:46;;;;;;;;;;;;;;;;;;4952659;28;19944;-85
2022/08/09 10:06:11;;;;;;;;;;;;;;;;;;4944926;28;19973;-85
2022/08/09 10:08:36;;;;;;;;;;;;;;;;;;4950521;28;19920;-84
2022/08/09 10:11:02;;;;;;;;;;;;;;;;;;4953783;28;19914;-86
2022/08/09 10:13:27;;;;;;;;;;;;;;;;;;4948740;28;19910;-85
2022/08/09 10:15:52;;;;;;;;;;;;;;;;;;4947988;28;19922;-86
2022/08/09 10:18:17;;;;;;;;;;;;;;;;;;4941246;28;20001;-85
2022/08/09 10:20:42;;;;;;;;;;;;;;;;;;4953062;28;19914;-84
2022/08/09 10:23:07;;;;;;;;;;;;;;;;;;4951325;28;19937;-85
2022/08/09 10:25:33;;;;;;;;;;;;;;;;;;4948019;28;20336;-85
2022/08/09 10:27:59;;;;;;;;;;;;;;;;;;4953734;28;19919;-85
2022/08/09 10:30:24;;;;;;;;;;;;;;;;;;4946920;28;19977;-87
2022/08/09 10:32:50;;;;;;;;;;;;;;;;;;4952381;28;20280;-85
2022/08/09 10:35:15;;;;;;;;;;;;;;;;;;4948517;28;19918;-85
2022/08/09 10:37:40;;;;;;;;;;;;;;;;;;4951820;28;19922;-87
2022/08/09 10:40:06;;;;;;;;;;;;;;;;;;4960781;28;19919;-87
2022/08/09 10:42:31;;;;;;;;;;;;;;;;;;4950333;28;19921;-86
2022/08/09 10:44:56;;;;;;;;;;;;;;;;;;4950421;28;19919;-85
2022/08/09 10:47:21;;;;;;;;;;;;;;;;;;4945935;28;19914;-85
2022/08/09 10:49:47;;;;;;;;;;;;;;;;;;4951227;28;19934;-86
2022/08/09 10:52:12;;;;;;;;;;;;;;;;;;4948293;28;19922;-86
2022/08/09 10:54:37;;;;;;;;;;;;;;;;;;4941192;28;20377;-85
2022/08/09 10:57:03;;;;;;;;;;;;;;;;;;4951711;28;19918;-85
2022/08/09 10:59:28;;;;;;;;;;;;;;;;;;4948224;28;20001;-86
2022/08/09 11:01:54;;;;;;;;;;;;;;;;;;4947591;28;19942;-84
2022/08/09 11:04:22;;;;;;;;;;;;;;;;;;4966577;28;20388;-85
2022/08/09 11:06:47;;;;;;;;;;;;;;;;;;4955589;28;20368;-85
2022/08/09 11:09:12;;;;;;;;;;;;;;;;;;4946505;28;19923;-86
2022/08/09 11:11:38;;;;;;;;;;;;;;;;;;4949852;28;19970;-85
2022/08/09 11:14:03;;;;;;;;;;;;;;;;;;4947639;28;19918;-86
2022/08/09 11:16:28;;;;;;;;;;;;;;;;;;4948096;28;19918;-86
2022/08/09 11:18:53;;;;;;;;;;;;;;;;;;4951065;28;19922;-85
2022/08/09 11:21:21;;;;;;;;;;;;;;;;;;4943226;28;20009;-87
2022/08/09 11:23:46;;;;;;;;;;;;;;;;;;4948509;28;19915;-86
2022/08/09 11:26:11;;;;;;;;;;;;;;;;;;4951772;28;19925;-84
2022/08/09 11:28:36;;;;;;;;;;;;;;;;;;4945552;28;19914;-85
2022/08/09 11:31:02;;;;;;;;;;;;;;;;;;4954842;28;19965;-86
2022/08/09 11:33:27;;;;;;;;;;;;;;;;;;4944539;28;19969;-85
2022/08/09 11:35:52;;;;;;;;;;;;;;;;;;4945408;28;19973;-85
2022/08/09 11:38:17;;;;;;;;;;;;;;;;;;4963874;28;19914;-86
2022/08/09 11:40:42;;;;;;;;;;;;;;;;;;4949975;28;19926;-86
2022/08/09 11:43:07;;;;;;;;;;;;;;;;;;4954777;28;20335;-86
2022/08/09 11:45:37;;;;;;;;;;;;;;;;;;4946574;28;20357;-86
2022/08/09 11:48:05;;;;;;;;;;;;;;;;;;4949110;28;19918;-85
2022/08/09 11:50:30;;;;;;;;;;;;;;;;;;4948587;28;19957;-86
2022/08/09 11:52:55;;;;;;;;;;;;;;;;;;4949647;28;19972;-86
2022/08/09 11:55:20;;;;;;;;;;;;;;;;;;4953161;28;20645;-86
2022/08/09 11:57:46;;;;;;;;;;;;;;;;;;4943321;28;19915;-86
2022/08/09 12:00:11;;;;;;;;;;;;;;;;;;4942106;28;20048;-86
2022/08/09 12:02:36;;;;;;;;;;;;;;;;;;4947783;28;19966;-85
2022/08/09 12:05:01;;;;;;;;;;;;;;;;;;4946189;28;20396;-85
2022/08/09 12:07:27;;;;;;;;;;;;;;;;;;4950396;28;19920;-85
2022/08/09 12:09:52;;;;;;;;;;;;;;;;;;4943933;28;20017;-86
2022/08/09 12:12:18;;;;;;;;;;;;;;;;;;4946386;28;19961;-85
2022/08/09 12:14:43;;;;;;;;;;;;;;;;;;4965847;28;19969;-86
2022/08/09 12:17:08;;;;;;;;;;;;;;;;;;4947716;28;19946;-85
2022/08/09 12:19:34;;;;;;;;;;;;;;;;;;4947319;28;19958;-85
2022/08/09 12:21:59;;;;;;;;;;;;;;;;;;4951325;28;20013;-85
2022/08/09 12:24:24;;;;;;;;;;;;;;;;;;4945916;28;19910;-86
2022/08/09 12:26:49;;;;;;;;;;;;;;;;;;4952156;28;19918;-86
2022/08/09 12:29:14;;;;;;;;;;;;;;;;;;4947224;28;19986;-86
2022/08/09 12:31:40;;;;;;;;;;;;;;;;;;4947253;28;20432;-85
2022/08/09 12:34:05;;;;;;;;;;;;;;;;;;4953172;28;19930;-84
2022/08/09 12:36:31;;;;;;;;;;;;;;;;;;4950505;28;20420;-86
2022/08/09 12:38:57;;;;;;;;;;;;;;;;;;4953875;28;19921;-86
2022/08/09 12:41:22;;;;;;;;;;;;;;;;;;4950983;28;19914;-85
2022/08/09 12:43:47;;;;;;;;;;;;;;;;;;4952462;28;19919;-86
2022/08/09 12:46:12;;;;;;;;;;;;;;;;;;4949458;28;20106;-86
2022/08/09 12:48:37;;;;;;;;;;;;;;;;;;4944014;28;19921;-87
2022/08/09 12:51:03;;;;;;;;;;;;;;;;;;4952252;28;19997;-87
2022/08/09 12:53:28;;;;;;;;;;;;;;;;;;4949458;28;19914;-86
2022/08/09 12:55:54;;;;;;;;;;;;;;;;;;4949883;28;20373;-87
2022/08/09 12:58:19;;;;;;;;;;;;;;;;;;4945619;28;20277;-86
2022/08/09 13:00:46;;;;;;;;;;;;;;;;;;4944096;28;19921;-88
2022/08/09 13:03:11;;;;;;;;;;;;;;;;;;4947927;28;20245;-87
2022/08/09 13:05:36;;;;;;;;;;;;;;;;;;4946508;28;19925;-85
2022/08/09 13:08:01;;;;;;;;;;;;;;;;;;4954555;28;19969;-86
2022/08/09 13:10:26;;;;;;;;;;;;;;;;;;4950280;28;20431;-86
2022/08/09 13:12:53;;;;;;;;;;;;;;;;;;4949737;29;19915;-84
2022/08/09 13:15:18;;;;;;;;;;;;;;;;;;4968975;28;19966;-87
2022/08/09 13:17:43;;;;;;;;;;;;;;;;;;4954244;28;20312;-87
2022/08/09 13:20:09;;;;;;;;;;;;;;;;;;4947404;28;19943;-85
2022/08/09 13:22:34;;;;;;;;;;;;;;;;;;4947407;28;20373;-87
2022/08/09 13:24:59;;;;;;;;;;;;;;;;;;4945639;28;19915;-87
2022/08/09 13:27:24;;;;;;;;;;;;;;;;;;4951996;28;19921;-86
2022/08/09 13:29:49;;;;;;;;;;;;;;;;;;4954567;28;19914;-85
2022/08/09 13:32:14;;;;;;;;;;;;;;;;;;4953489;28;19915;-87
2022/08/09 13:34:40;;;;;;;;;;;;;;;;;;4951426;28;20385;-86
2022/08/09 13:37:05;;;;;;;;;;;;;;;;;;4949306;28;19982;-86
2022/08/09 13:39:30;;;;;;;;;;;;;;;;;;4951407;28;19926;-86
2022/08/09 13:41:55;;;;;;;;;;;;;;;;;;4951715;28;19918;-85
2022/08/09 13:44:20;;;;;;;;;;;;;;;;;;4945763;28;20369;-85
2022/08/09 13:46:46;;;;;;;;;;;;;;;;;;4951714;28;20009;-88
2022/08/09 13:49:11;;;;;;;;;;;;;;;;;;4951738;28;19918;-87
2022/08/09 13:51:36;;;;;;;;;;;;;;;;;;4951500;28;20377;-86
2022/08/09 13:54:01;;;;;;;;;;;;;;;;;;4949920;28;20013;-84
2022/08/09 13:56:26;;;;;;;;;;;;;;;;;;4953864;28;20013;-86
2022/08/09 13:58:52;;;;;;;;;;;;;;;;;;4955315;28;19962;-87
2022/08/09 14:01:17;;;;;;;;;;;;;;;;;;4949670;28;19915;-87
2022/08/09 14:03:42;;;;;;;;;;;;;;;;;;4952728;28;20069;-87
2022/08/09 14:06:07;;;;;;;;;;;;;;;;;;4949090;28;19922;-86
2022/08/09 14:08:32;;;;;;;;;;;;;;;;;;4952814;28;19926;-85
2022/08/09 14:10:58;;;;;;;;;;;;;;;;;;4947937;28;20448;-86
2022/08/09 14:13:23;;;;;;;;;;;;;;;;;;4952549;28;19914;-86
2022/08/09 14:15:48;;;;;;;;;;;;;;;;;;4959507;28;19930;-85
2022/08/09 14:18:13;;;;;;;;;;;;;;;;;;4952777;28;19977;-86
2022/08/09 14:20:39;;;;;;;;;;;;;;;;;;4951066;28;20005;-86
2022/08/09 14:23:04;;;;;;;;;;;;;;;;;;4944705;28;19921;-86
2022/08/09 14:25:29;;;;;;;;;;;;;;;;;;4947231;28;19914;-85
2022/08/09 14:27:54;;;;;;;;;;;;;;;;;;4955959;28;19920;-86
2022/08/09 14:30:19;;;;;;;;;;;;;;;;;;4951831;28;19927;-86
2022/08/09 14:32:44;;;;;;;;;;;;;;;;;;4950391;28;20049;-85
2022/08/09 14:35:09;;;;;;;;;;;;;;;;;;4950146;28;20379;-85
2022/08/09 14:37:35;;;;;;;;;;;;;;;;;;4945511;28;19941;-83
2022/08/09 14:40:00;;;;;;;;;;;;;;;;;;4944926;28;21202;-86
2022/08/09 14:42:26;;;;;;;;;;;;;;;;;;4949413;28;19923;-86
2022/08/09 14:44:51;;;;;;;;;;;;;;;;;;4947632;28;20304;-83
2022/08/09 14:47:16;;;;;;;;;;;;;;;;;;4939933;28;19938;-84
2022/08/09 14:49:41;;;;;;;;;;;;;;;;;;4951530;28;19922;-84
2022/08/09 14:52:07;;;;;;;;;;;;;;;;;;4952226;28;19915;-85
2022/08/09 14:54:34;;;;;;;;;;;;;;;;;;4957298;28;20200;-85
2022/08/09 14:56:59;;;;;;;;;;;;;;;;;;4951627;28;20420;-84
2022/08/09 14:59:24;;;;;;;;;;;;;;;;;;4957775;28;19914;-84
2022/08/09 15:01:49;;;;;;;;;;;;;;;;;;4953100;28;20003;-83
2022/08/09 15:04:15;;;;;;;;;;;;;;;;;;4948638;28;20308;-83
2022/08/09 15:06:40;;;;;;;;;;;;;;;;;;4952360;28;19911;-84
2022/08/09 15:09:05;;;;;;;;;;;;;;;;;;4952073;28;19923;-82
2022/08/09 15:11:31;;;;;;;;;;;;;;;;;;4953466;28;20009;-83
2022/08/09 15:13:56;;;;;;;;;;;;;;;;;;4950826;28;19925;-83
2022/08/09 15:16:21;;;;;;;;;;;;;;;;;;4953555;28;19914;-83
2022/08/09 15:18:46;;;;;;;;;;;;;;;;;;4950124;28;19958;-84
2022/08/09 15:21:12;;;;;;;;;;;;;;;;;;4952445;28;19915;-83
2022/08/09 15:23:37;;;;;;;;;;;;;;;;;;4942019;28;19977;-85
2022/08/09 15:26:02;;;;;;;;;;;;;;;;;;4944594;28;19977;-84
2022/08/09 15:28:29;;;;;;;;;;;;;;;;;;4944474;28;20025;-85
2022/08/09 15:30:54;;;;;;;;;;;;;;;;;;4951278;28;19922;-85
2022/08/09 15:33:22;;;;;;;;;;;;;;;;;;4943358;28;20357;-85
2022/08/09 15:35:47;;;;;;;;;;;;;;;;;;4947158;28;19925;-85
2022/08/09 15:38:27;;;;;;;;;;;;;;;;;;4947271;28;20419;-84
2022/08/09 15:40:55;;;;;;;;;;;;;;;;;;4947084;28;20060;-84
2022/08/09 15:43:30;;;;;;;;;;;;;;;;;;;;;
2022/08/09 15:46:16;;;;;;;;;;;;;;;;;;4946393;28;19918;-85
2022/08/09 15:48:41;;;;;;;;;;;;;;;;;;4942400;28;19973;-84
2022/08/09 15:51:28;;;;;;;;;;;;;;;;;;;;;
2022/08/09 15:54:29;;;;;;;;;;;;;;;;;;;;;
2022/08/09 15:57:08;;;;;;;;;;;;;;;;;;;;;
2022/08/09 16:02:49;;;;;;;;;;;;;;;;;;;;;
2022/08/09 16:08:13;;;;;;;;;;;;;;;;;;4951709;28;19919;-83
2022/08/09 16:10:42;;;;;;;;;;;;;;;;;;4959502;28;19918;-83
2022/08/09 16:13:24;;;;;;;;;;;;;;;;;;4953446;28;20393;-84
2022/08/09 16:15:49;;;;;;;;;;;;;;;;;;4953794;28;20572;-84
2022/08/09 16:18:20;;;;;;;;;;;;;;;;;;4949756;28;19915;-84
2022/08/09 16:23:39;;;;;;;;;;;;;;;;;;4951473;28;19915;-82
2022/08/09 16:26:10;;;;;;;;;;;;;;;;;;4947450;28;20556;-85
2022/08/09 16:28:44;;;;;;;;;;;;;;;;;;4945491;28;20348;-83
2022/08/09 16:31:24;;;;;;;;;;;;;;;;;;4952918;28;20005;-84
2022/08/09 16:33:53;;;;;;;;;;;;;;;;;;4951729;28;19922;-84
2022/08/09 16:36:31;;;;;;;;;;;;;;;;;;;;;
2022/08/09 16:39:02;;;;;;;;;;;;;;;;;;4963960;28;19918;-83
2022/08/09 16:41:46;;;;;;;;;;;;;;;;;;;;;
2022/08/09 16:47:04;;;;;;;;;;;;;;;;;;4944608;28;20398;-82
2022/08/09 16:49:32;;;;;;;;;;;;;;;;;;4953655;28;19914;-82
2022/08/09 16:51:58;;;;;;;;;;;;;;;;;;4952435;28;19966;-81
2022/08/09 16:54:25;;;;;;;;;;;;;;;;;;4949603;28;19929;-82